Six Lakes, MI (48886)

2:53 PM EST on March 05, 2015 (GMT -0500)
Langston, MI | Change Station
CLOSE
Current Station
Personal Weather Station
Location: Michigan, MI
Elevation: 892 ft
Nearby Weather Stations

Elev 892 ft 43.31 °N, 85.24 °W | Updated 7 seconds ago

Overcast
Overcast
16.0 °F
Feels Like 5 °F
N
8.0
Wind Variable Wind from West
Gusts 12.0 mph

Today
High -- | Low -- °F
--% Chance of Precip.
Yesterday
High -- | Low -- °F
Precip. -- in
7:10 AM 6:34 PM
Full, 100% visible
Pressure 30.38 in
Visibility 10.0 miles
Clouds Scattered Clouds 3500 ft
Mostly Cloudy 4100 ft
Windchill 5 °F
Dew Point 3 °F
Humidity 55%
Rainfall in
Snow Depth Not available.
UV 2 out of 12
Pollen .40 out of 12
Air Quality Not available.
Flu Activity Not available.
METAR KY70 051933Z AUTO 30006KT 10SM SCT035 BKN041 M08/M17 A3038 RMK AO2 T10791169

More Conditions Fewer Conditions

Pressure 30.38 in
Visibility 10.0 miles
Clouds Scattered Clouds 3500 ft
Mostly Cloudy 4100 ft
Windchill 5 °F
Dew Point 3 °F
Humidity 55%
Rainfall in
Snow Depth Not available.
UV 2 out of 12
Pollen .40 out of 12
Air Quality Not available.
Flu Activity Not available.
METAR KY70 051933Z AUTO 30006KT 10SM SCT035 BKN041 M08/M17 A3038 RMK AO2 T10791169

More Conditions Fewer Conditions

10-Day Weather Forecast

Almanac

Astronomy

Mar. 05, 2015 Rise Set
Actual Time
Civil Twilight
Nautical Twilight
Astronomical Twilight
Moon
Length of Visible Light
Length of Day
Tomorrow will be .
, % of the Moon is Illuminated

Today's Extremes

State Highs State Lows

Community

WunderPhotos

Upload Photos

1,802,929 photos uploaded!

WunderBlogs® & News

Nearby

Air Quality

  Air Quality AQ Index Pollutant
Not available.

Snow Depth

Station Depth Elevation

Earthquake Activity

City Distance Mag. Time & Date
Minimum magnitude displayed is 2.5.

Coastal Water Temperatures

Place Temperature

Nearby Weather Stations